sensor_id;sensor_type;location;lat;lon;timestamp;P1;durP1;ratioP1;P2;durP2;ratioP2
26820;SDS011;37186;51.394;5.454;2023-04-03T00:02:47;2.37;;;2.37;;
26820;SDS011;37186;51.394;5.454;2023-04-03T00:05:47;2.50;;;2.50;;
26820;SDS011;37186;51.394;5.454;2023-04-03T00:08:48;2.40;;;2.40;;
26820;SDS011;37186;51.394;5.454;2023-04-03T00:11:49;2.20;;;2.20;;
26820;SDS011;37186;51.394;5.454;2023-04-03T00:14:50;2.30;;;2.30;;
26820;SDS011;37186;51.394;5.454;2023-04-03T00:17:50;2.40;;;2.40;;
26820;SDS011;37186;51.394;5.454;2023-04-03T00:20:51;2.50;;;2.50;;
26820;SDS011;37186;51.394;5.454;2023-04-03T00:23:51;2.60;;;2.60;;
26820;SDS011;37186;51.394;5.454;2023-04-03T00:26:52;2.50;;;2.50;;
26820;SDS011;37186;51.394;5.454;2023-04-03T00:29:53;2.40;;;2.40;;
26820;SDS011;37186;51.394;5.454;2023-04-03T00:32:53;2.40;;;2.40;;
26820;SDS011;37186;51.394;5.454;2023-04-03T00:35:54;2.60;;;2.60;;
26820;SDS011;37186;51.394;5.454;2023-04-03T00:38:54;2.50;;;2.50;;
26820;SDS011;37186;51.394;5.454;2023-04-03T00:41:55;2.67;;;2.67;;
26820;SDS011;37186;51.394;5.454;2023-04-03T00:47:56;2.60;;;2.60;;
26820;SDS011;37186;51.394;5.454;2023-04-03T00:50:59;2.50;;;2.50;;
26820;SDS011;37186;51.394;5.454;2023-04-03T00:54:03;2.30;;;2.30;;
26820;SDS011;37186;51.394;5.454;2023-04-03T00:57:06;2.60;;;2.60;;
26820;SDS011;37186;51.394;5.454;2023-04-03T01:00:09;2.30;;;2.30;;
26820;SDS011;37186;51.394;5.454;2023-04-03T01:03:12;2.30;;;2.30;;
26820;SDS011;37186;51.394;5.454;2023-04-03T01:06:13;2.60;;;2.60;;
26820;SDS011;37186;51.394;5.454;2023-04-03T01:09:16;2.27;;;2.27;;
26820;SDS011;37186;51.394;5.454;2023-04-03T01:15:19;2.10;;;2.10;;
26820;SDS011;37186;51.394;5.454;2023-04-03T01:18:25;2.20;;;2.20;;
26820;SDS011;37186;51.394;5.454;2023-04-03T01:24:36;2.20;;;2.20;;
26820;SDS011;37186;51.394;5.454;2023-04-03T01:27:38;2.50;;;2.50;;
26820;SDS011;37186;51.394;5.454;2023-04-03T01:30:41;2.30;;;2.30;;
26820;SDS011;37186;51.394;5.454;2023-04-03T01:33:47;2.40;;;2.40;;
26820;SDS011;37186;51.394;5.454;2023-04-03T01:36:48;2.50;;;2.50;;
26820;SDS011;37186;51.394;5.454;2023-04-03T01:39:48;2.40;;;2.40;;
26820;SDS011;37186;51.394;5.454;2023-04-03T01:42:49;2.57;;;2.57;;
26820;SDS011;37186;51.394;5.454;2023-04-03T01:45:49;2.40;;;2.40;;
26820;SDS011;37186;51.394;5.454;2023-04-03T01:48:52;2.50;;;2.50;;
26820;SDS011;37186;51.394;5.454;2023-04-03T01:51:52;2.40;;;2.40;;
26820;SDS011;37186;51.394;5.454;2023-04-03T01:54:53;2.37;;;2.37;;
26820;SDS011;37186;51.394;5.454;2023-04-03T01:57:53;2.53;;;2.53;;
26820;SDS011;37186;51.394;5.454;2023-04-03T02:00:54;2.50;;;2.50;;
26820;SDS011;37186;51.394;5.454;2023-04-03T02:03:55;2.87;;;2.77;;
26820;SDS011;37186;51.394;5.454;2023-04-03T02:06:56;2.40;;;2.40;;
26820;SDS011;37186;51.394;5.454;2023-04-03T02:09:56;2.50;;;2.50;;
26820;SDS011;37186;51.394;5.454;2023-04-03T02:12:57;2.50;;;2.50;;
26820;SDS011;37186;51.394;5.454;2023-04-03T02:15:57;2.60;;;2.60;;
26820;SDS011;37186;51.394;5.454;2023-04-03T02:18:58;2.50;;;2.50;;
26820;SDS011;37186;51.394;5.454;2023-04-03T02:21:59;2.70;;;2.70;;
26820;SDS011;37186;51.394;5.454;2023-04-03T02:25:00;2.40;;;2.40;;
26820;SDS011;37186;51.394;5.454;2023-04-03T02:28:00;2.33;;;2.33;;
26820;SDS011;37186;51.394;5.454;2023-04-03T02:31:01;2.50;;;2.50;;
26820;SDS011;37186;51.394;5.454;2023-04-03T02:34:02;2.40;;;2.40;;
26820;SDS011;37186;51.394;5.454;2023-04-03T02:37:03;2.50;;;2.50;;
26820;SDS011;37186;51.394;5.454;2023-04-03T02:40:04;2.57;;;2.57;;
26820;SDS011;37186;51.394;5.454;2023-04-03T02:43:05;2.40;;;2.40;;
26820;SDS011;37186;51.394;5.454;2023-04-03T02:46:06;2.50;;;2.50;;
26820;SDS011;37186;51.394;5.454;2023-04-03T02:49:07;2.40;;;2.40;;
26820;SDS011;37186;51.394;5.454;2023-04-03T02:52:08;2.30;;;2.30;;
26820;SDS011;37186;51.394;5.454;2023-04-03T02:55:08;2.50;;;2.50;;
26820;SDS011;37186;51.394;5.454;2023-04-03T02:58:13;2.43;;;2.43;;
26820;SDS011;37186;51.394;5.454;2023-04-03T03:01:14;2.30;;;2.30;;
26820;SDS011;37186;51.394;5.454;2023-04-03T03:04:14;2.37;;;2.37;;
26820;SDS011;37186;51.394;5.454;2023-04-03T03:07:15;2.40;;;2.40;;
26820;SDS011;37186;51.394;5.454;2023-04-03T03:10:16;2.20;;;2.20;;
26820;SDS011;37186;51.394;5.454;2023-04-03T03:13:16;2.43;;;2.43;;
26820;SDS011;37186;51.394;5.454;2023-04-03T03:16:17;2.30;;;2.30;;
26820;SDS011;37186;51.394;5.454;2023-04-03T03:19:17;2.37;;;2.37;;
26820;SDS011;37186;51.394;5.454;2023-04-03T03:22:18;2.60;;;2.60;;
26820;SDS011;37186;51.394;5.454;2023-04-03T03:25:19;2.60;;;2.60;;
26820;SDS011;37186;51.394;5.454;2023-04-03T03:28:20;2.30;;;2.30;;
26820;SDS011;37186;51.394;5.454;2023-04-03T03:31:20;2.30;;;2.30;;
26820;SDS011;37186;51.394;5.454;2023-04-03T03:34:21;2.30;;;2.30;;
26820;SDS011;37186;51.394;5.454;2023-04-03T03:37:21;2.30;;;2.30;;
26820;SDS011;37186;51.394;5.454;2023-04-03T03:40:22;2.50;;;2.50;;
26820;SDS011;37186;51.394;5.454;2023-04-03T03:43:22;2.30;;;2.30;;
26820;SDS011;37186;51.394;5.454;2023-04-03T03:46:23;2.40;;;2.40;;
26820;SDS011;37186;51.394;5.454;2023-04-03T03:49:23;2.40;;;2.40;;
26820;SDS011;37186;51.394;5.454;2023-04-03T03:52:24;2.30;;;2.30;;
26820;SDS011;37186;51.394;5.454;2023-04-03T03:55:26;2.40;;;2.40;;
26820;SDS011;37186;51.394;5.454;2023-04-03T03:58:26;2.60;;;2.60;;
26820;SDS011;37186;51.394;5.454;2023-04-03T04:01:27;2.40;;;2.40;;
26820;SDS011;37186;51.394;5.454;2023-04-03T04:04:28;2.40;;;2.40;;
26820;SDS011;37186;51.394;5.454;2023-04-03T04:07:28;2.30;;;2.30;;
26820;SDS011;37186;51.394;5.454;2023-04-03T04:10:29;2.30;;;2.30;;
26820;SDS011;37186;51.394;5.454;2023-04-03T04:13:30;2.40;;;2.40;;
26820;SDS011;37186;51.394;5.454;2023-04-03T04:16:30;2.50;;;2.50;;
26820;SDS011;37186;51.394;5.454;2023-04-03T04:19:31;2.50;;;2.50;;
26820;SDS011;37186;51.394;5.454;2023-04-03T04:22:33;2.40;;;2.40;;
26820;SDS011;37186;51.394;5.454;2023-04-03T04:25:33;2.57;;;2.57;;
26820;SDS011;37186;51.394;5.454;2023-04-03T04:28:34;2.60;;;2.60;;
26820;SDS011;37186;51.394;5.454;2023-04-03T04:31:34;2.40;;;2.40;;
26820;SDS011;37186;51.394;5.454;2023-04-03T04:34:35;2.37;;;2.37;;
26820;SDS011;37186;51.394;5.454;2023-04-03T04:37:35;2.30;;;2.30;;
26820;SDS011;37186;51.394;5.454;2023-04-03T04:40:36;2.30;;;2.30;;
26820;SDS011;37186;51.394;5.454;2023-04-03T04:43:37;2.30;;;2.30;;
26820;SDS011;37186;51.394;5.454;2023-04-03T04:46:38;2.60;;;2.60;;
26820;SDS011;37186;51.394;5.454;2023-04-03T04:49:38;2.33;;;2.33;;
26820;SDS011;37186;51.394;5.454;2023-04-03T04:52:39;2.60;;;2.60;;
26820;SDS011;37186;51.394;5.454;2023-04-03T04:55:40;2.40;;;2.40;;
26820;SDS011;37186;51.394;5.454;2023-04-03T04:58:40;2.30;;;2.30;;
26820;SDS011;37186;51.394;5.454;2023-04-03T05:01:41;2.30;;;2.30;;
26820;SDS011;37186;51.394;5.454;2023-04-03T05:04:41;2.63;;;2.63;;
26820;SDS011;37186;51.394;5.454;2023-04-03T05:07:42;2.40;;;2.40;;
26820;SDS011;37186;51.394;5.454;2023-04-03T05:10:44;2.30;;;2.30;;
26820;SDS011;37186;51.394;5.454;2023-04-03T05:13:45;2.40;;;2.40;;
26820;SDS011;37186;51.394;5.454;2023-04-03T05:16:45;2.40;;;2.40;;
26820;SDS011;37186;51.394;5.454;2023-04-03T05:19:47;2.43;;;2.43;;
26820;SDS011;37186;51.394;5.454;2023-04-03T05:22:47;2.50;;;2.50;;
26820;SDS011;37186;51.394;5.454;2023-04-03T05:25:48;2.43;;;2.43;;
26820;SDS011;37186;51.394;5.454;2023-04-03T05:28:48;2.27;;;2.27;;
26820;SDS011;37186;51.394;5.454;2023-04-03T05:31:49;2.50;;;2.50;;
26820;SDS011;37186;51.394;5.454;2023-04-03T05:34:50;2.60;;;2.60;;
26820;SDS011;37186;51.394;5.454;2023-04-03T05:37:51;2.30;;;2.30;;
26820;SDS011;37186;51.394;5.454;2023-04-03T05:40:52;2.40;;;2.40;;
26820;SDS011;37186;51.394;5.454;2023-04-03T05:43:52;2.30;;;2.30;;
26820;SDS011;37186;51.394;5.454;2023-04-03T05:46:53;2.33;;;2.33;;
26820;SDS011;37186;51.394;5.454;2023-04-03T05:49:53;2.30;;;2.30;;
26820;SDS011;37186;51.394;5.454;2023-04-03T05:52:55;2.30;;;2.30;;
26820;SDS011;37186;51.394;5.454;2023-04-03T05:55:58;2.40;;;2.40;;
26820;SDS011;37186;51.394;5.454;2023-04-03T05:58:58;2.37;;;2.37;;
26820;SDS011;37186;51.394;5.454;2023-04-03T06:01:59;2.40;;;2.40;;
26820;SDS011;37186;51.394;5.454;2023-04-03T06:05:01;2.30;;;2.30;;
26820;SDS011;37186;51.394;5.454;2023-04-03T06:08:02;2.40;;;2.40;;
26820;SDS011;37186;51.394;5.454;2023-04-03T06:11:03;2.50;;;2.50;;
26820;SDS011;37186;51.394;5.454;2023-04-03T06:14:03;2.30;;;2.30;;
26820;SDS011;37186;51.394;5.454;2023-04-03T06:17:04;2.40;;;2.40;;
26820;SDS011;37186;51.394;5.454;2023-04-03T06:20:06;2.40;;;2.40;;
26820;SDS011;37186;51.394;5.454;2023-04-03T06:23:07;2.20;;;2.20;;
26820;SDS011;37186;51.394;5.454;2023-04-03T06:26:08;2.50;;;2.50;;
26820;SDS011;37186;51.394;5.454;2023-04-03T06:29:09;2.67;;;2.67;;
26820;SDS011;37186;51.394;5.454;2023-04-03T06:32:09;2.47;;;2.47;;
26820;SDS011;37186;51.394;5.454;2023-04-03T06:35:10;2.40;;;2.40;;
26820;SDS011;37186;51.394;5.454;2023-04-03T06:38:11;2.30;;;2.30;;
26820;SDS011;37186;51.394;5.454;2023-04-03T06:41:11;2.40;;;2.40;;
26820;SDS011;37186;51.394;5.454;2023-04-03T06:44:12;2.47;;;2.47;;
26820;SDS011;37186;51.394;5.454;2023-04-03T06:47:15;2.30;;;2.30;;
26820;SDS011;37186;51.394;5.454;2023-04-03T06:50:16;2.20;;;2.20;;
26820;SDS011;37186;51.394;5.454;2023-04-03T06:53:17;2.20;;;2.20;;
26820;SDS011;37186;51.394;5.454;2023-04-03T06:56:18;2.30;;;2.30;;
26820;SDS011;37186;51.394;5.454;2023-04-03T06:59:19;2.30;;;2.30;;
26820;SDS011;37186;51.394;5.454;2023-04-03T07:02:20;2.30;;;2.30;;
26820;SDS011;37186;51.394;5.454;2023-04-03T07:05:20;2.23;;;2.23;;
26820;SDS011;37186;51.394;5.454;2023-04-03T07:08:21;2.30;;;2.30;;
26820;SDS011;37186;51.394;5.454;2023-04-03T07:11:23;2.30;;;2.30;;
26820;SDS011;37186;51.394;5.454;2023-04-03T07:14:24;2.30;;;2.30;;
26820;SDS011;37186;51.394;5.454;2023-04-03T07:17:24;2.20;;;2.20;;
26820;SDS011;37186;51.394;5.454;2023-04-03T07:20:25;2.50;;;2.50;;
26820;SDS011;37186;51.394;5.454;2023-04-03T07:23:26;2.20;;;2.20;;
26820;SDS011;37186;51.394;5.454;2023-04-03T07:26:26;2.30;;;2.30;;
26820;SDS011;37186;51.394;5.454;2023-04-03T07:29:27;2.30;;;2.30;;
26820;SDS011;37186;51.394;5.454;2023-04-03T07:32:28;2.27;;;2.27;;
26820;SDS011;37186;51.394;5.454;2023-04-03T07:35:29;2.40;;;2.40;;
26820;SDS011;37186;51.394;5.454;2023-04-03T07:38:29;2.30;;;2.30;;
26820;SDS011;37186;51.394;5.454;2023-04-03T07:41:30;2.30;;;2.30;;
26820;SDS011;37186;51.394;5.454;2023-04-03T07:44:31;2.40;;;2.40;;
26820;SDS011;37186;51.394;5.454;2023-04-03T07:47:32;2.27;;;2.27;;
26820;SDS011;37186;51.394;5.454;2023-04-03T07:50:32;2.30;;;2.30;;
26820;SDS011;37186;51.394;5.454;2023-04-03T07:53:33;2.23;;;2.23;;
26820;SDS011;37186;51.394;5.454;2023-04-03T07:56:33;2.30;;;2.30;;
26820;SDS011;37186;51.394;5.454;2023-04-03T07:59:34;2.40;;;2.40;;
26820;SDS011;37186;51.394;5.454;2023-04-03T08:02:35;2.23;;;2.23;;
26820;SDS011;37186;51.394;5.454;2023-04-03T08:05:36;2.30;;;2.30;;
26820;SDS011;37186;51.394;5.454;2023-04-03T08:08:38;2.30;;;2.30;;
26820;SDS011;37186;51.394;5.454;2023-04-03T08:11:39;2.30;;;2.30;;
26820;SDS011;37186;51.394;5.454;2023-04-03T08:14:39;2.40;;;2.40;;
26820;SDS011;37186;51.394;5.454;2023-04-03T08:17:40;2.30;;;2.30;;
26820;SDS011;37186;51.394;5.454;2023-04-03T08:20:41;2.60;;;2.60;;
26820;SDS011;37186;51.394;5.454;2023-04-03T08:23:42;2.40;;;2.40;;
26820;SDS011;37186;51.394;5.454;2023-04-03T08:26:42;2.40;;;2.40;;
26820;SDS011;37186;51.394;5.454;2023-04-03T08:29:43;2.40;;;2.40;;
26820;SDS011;37186;51.394;5.454;2023-04-03T08:32:43;2.20;;;2.20;;
26820;SDS011;37186;51.394;5.454;2023-04-03T08:35:44;2.40;;;2.40;;
26820;SDS011;37186;51.394;5.454;2023-04-03T08:38:45;2.30;;;2.30;;
26820;SDS011;37186;51.394;5.454;2023-04-03T08:41:46;2.30;;;2.30;;
26820;SDS011;37186;51.394;5.454;2023-04-03T08:44:52;2.30;;;2.30;;
26820;SDS011;37186;51.394;5.454;2023-04-03T08:48:13;2.10;;;2.10;;
26820;SDS011;37186;51.394;5.454;2023-04-03T08:51:19;2.40;;;2.40;;
26820;SDS011;37186;51.394;5.454;2023-04-03T08:54:28;2.33;;;2.33;;
26820;SDS011;37186;51.394;5.454;2023-04-03T08:57:40;2.20;;;2.20;;
26820;SDS011;37186;51.394;5.454;2023-04-03T09:00:51;2.40;;;2.40;;
26820;SDS011;37186;51.394;5.454;2023-04-03T09:04:02;2.47;;;2.47;;
26820;SDS011;37186;51.394;5.454;2023-04-03T09:07:13;2.40;;;2.40;;
26820;SDS011;37186;51.394;5.454;2023-04-03T09:10:23;2.40;;;2.40;;
26820;SDS011;37186;51.394;5.454;2023-04-03T09:13:32;2.70;;;2.70;;
26820;SDS011;37186;51.394;5.454;2023-04-03T09:22:53;2.50;;;2.50;;
26820;SDS011;37186;51.394;5.454;2023-04-03T09:25:56;2.57;;;2.57;;
26820;SDS011;37186;51.394;5.454;2023-04-03T09:29:05;2.87;;;2.77;;
26820;SDS011;37186;51.394;5.454;2023-04-03T09:35:37;2.80;;;2.70;;
26820;SDS011;37186;51.394;5.454;2023-04-03T09:38:40;2.40;;;2.40;;
26820;SDS011;37186;51.394;5.454;2023-04-03T09:41:42;2.70;;;2.70;;
26820;SDS011;37186;51.394;5.454;2023-04-03T09:45:04;4.60;;;4.40;;
26820;SDS011;37186;51.394;5.454;2023-04-03T09:51:13;3.00;;;2.90;;
26820;SDS011;37186;51.394;5.454;2023-04-03T09:54:29;2.83;;;2.73;;
26820;SDS011;37186;51.394;5.454;2023-04-03T09:57:32;2.67;;;2.67;;
26820;SDS011;37186;51.394;5.454;2023-04-03T10:00:35;2.90;;;2.80;;
26820;SDS011;37186;51.394;5.454;2023-04-03T10:03:37;2.83;;;2.77;;
26820;SDS011;37186;51.394;5.454;2023-04-03T10:06:40;2.70;;;2.67;;
26820;SDS011;37186;51.394;5.454;2023-04-03T10:09:54;2.50;;;2.50;;
26820;SDS011;37186;51.394;5.454;2023-04-03T10:13:06;2.60;;;2.60;;
26820;SDS011;37186;51.394;5.454;2023-04-03T10:16:12;2.53;;;2.53;;
26820;SDS011;37186;51.394;5.454;2023-04-03T10:19:22;2.57;;;2.57;;
26820;SDS011;37186;51.394;5.454;2023-04-03T10:22:56;2.73;;;2.70;;
26820;SDS011;37186;51.394;5.454;2023-04-03T10:26:29;2.60;;;2.60;;
26820;SDS011;37186;51.394;5.454;2023-04-03T10:32:59;2.50;;;2.50;;
26820;SDS011;37186;51.394;5.454;2023-04-03T10:39:35;2.40;;;2.40;;
26820;SDS011;37186;51.394;5.454;2023-04-03T10:46:20;2.90;;;2.80;;
26820;SDS011;37186;51.394;5.454;2023-04-03T10:56:03;3.00;;;2.90;;
26820;SDS011;37186;51.394;5.454;2023-04-03T11:02:36;2.50;;;2.50;;
26820;SDS011;37186;51.394;5.454;2023-04-03T11:05:42;2.57;;;2.57;;
26820;SDS011;37186;51.394;5.454;2023-04-03T11:08:46;2.63;;;2.63;;
26820;SDS011;37186;51.394;5.454;2023-04-03T11:12:14;2.53;;;2.53;;
26820;SDS011;37186;51.394;5.454;2023-04-03T11:15:26;2.40;;;2.40;;
26820;SDS011;37186;51.394;5.454;2023-04-03T11:18:45;2.47;;;2.47;;
26820;SDS011;37186;51.394;5.454;2023-04-03T11:21:54;2.30;;;2.30;;
26820;SDS011;37186;51.394;5.454;2023-04-03T11:25:20;2.43;;;2.43;;
26820;SDS011;37186;51.394;5.454;2023-04-03T11:28:23;2.50;;;2.50;;
26820;SDS011;37186;51.394;5.454;2023-04-03T11:32:07;2.50;;;2.50;;
26820;SDS011;37186;51.394;5.454;2023-04-03T11:34:58;2.50;;;2.50;;
26820;SDS011;37186;51.394;5.454;2023-04-03T11:38:01;2.63;;;2.63;;
26820;SDS011;37186;51.394;5.454;2023-04-03T11:41:06;2.63;;;2.60;;
26820;SDS011;37186;51.394;5.454;2023-04-03T11:44:51;2.87;;;2.77;;
26820;SDS011;37186;51.394;5.454;2023-04-03T11:47:46;2.83;;;2.73;;
26820;SDS011;37186;51.394;5.454;2023-04-03T11:50:48;3.07;;;2.97;;
26820;SDS011;37186;51.394;5.454;2023-04-03T11:53:50;3.03;;;2.93;;
26820;SDS011;37186;51.394;5.454;2023-04-03T11:56:50;3.07;;;2.97;;
26820;SDS011;37186;51.394;5.454;2023-04-03T11:59:52;3.07;;;2.97;;
26820;SDS011;37186;51.394;5.454;2023-04-03T12:02:52;3.17;;;3.07;;
26820;SDS011;37186;51.394;5.454;2023-04-03T12:09:00;3.00;;;2.90;;
26820;SDS011;37186;51.394;5.454;2023-04-03T12:12:01;2.87;;;2.77;;
26820;SDS011;37186;51.394;5.454;2023-04-03T12:24:58;3.60;;;3.50;;
26820;SDS011;37186;51.394;5.454;2023-04-03T12:28:18;3.90;;;3.80;;
26820;SDS011;37186;51.394;5.454;2023-04-03T12:31:19;4.30;;;4.20;;
26820;SDS011;37186;51.394;5.454;2023-04-03T12:37:57;4.40;;;4.30;;
26820;SDS011;37186;51.394;5.454;2023-04-03T12:44:40;4.27;;;4.17;;
26820;SDS011;37186;51.394;5.454;2023-04-03T12:47:56;4.27;;;4.17;;
26820;SDS011;37186;51.394;5.454;2023-04-03T12:50:57;4.60;;;4.50;;
26820;SDS011;37186;51.394;5.454;2023-04-03T12:54:03;4.30;;;4.20;;
26820;SDS011;37186;51.394;5.454;2023-04-03T12:57:19;4.13;;;4.03;;
26820;SDS011;37186;51.394;5.454;2023-04-03T13:00:33;4.03;;;3.93;;
26820;SDS011;37186;51.394;5.454;2023-04-03T13:03:35;3.67;;;3.57;;
26820;SDS011;37186;51.394;5.454;2023-04-03T13:06:40;3.90;;;3.80;;
26820;SDS011;37186;51.394;5.454;2023-04-03T13:09:42;4.60;;;4.50;;
26820;SDS011;37186;51.394;5.454;2023-04-03T13:12:53;4.43;;;4.33;;
26820;SDS011;37186;51.394;5.454;2023-04-03T13:15:54;4.27;;;4.17;;
26820;SDS011;37186;51.394;5.454;2023-04-03T13:18:55;3.90;;;3.80;;
26820;SDS011;37186;51.394;5.454;2023-04-03T13:21:58;3.83;;;3.73;;
26820;SDS011;37186;51.394;5.454;2023-04-03T13:25:03;3.77;;;3.67;;
26820;SDS011;37186;51.394;5.454;2023-04-03T13:28:09;3.80;;;3.70;;
26820;SDS011;37186;51.394;5.454;2023-04-03T13:34:16;3.93;;;3.83;;
26820;SDS011;37186;51.394;5.454;2023-04-03T13:37:23;3.77;;;3.67;;
26820;SDS011;37186;51.394;5.454;2023-04-03T13:40:26;3.73;;;3.63;;
26820;SDS011;37186;51.394;5.454;2023-04-03T13:43:27;4.07;;;3.97;;
26820;SDS011;37186;51.394;5.454;2023-04-03T13:46:30;4.97;;;4.87;;
26820;SDS011;37186;51.394;5.454;2023-04-03T13:52:41;5.20;;;5.10;;
26820;SDS011;37186;51.394;5.454;2023-04-03T14:02:15;6.00;;;5.80;;
26820;SDS011;37186;51.394;5.454;2023-04-03T14:05:28;6.30;;;6.10;;
26820;SDS011;37186;51.394;5.454;2023-04-03T14:08:29;6.33;;;6.13;;
26820;SDS011;37186;51.394;5.454;2023-04-03T14:11:30;6.37;;;6.17;;
26820;SDS011;37186;51.394;5.454;2023-04-03T14:14:32;6.73;;;6.53;;
26820;SDS011;37186;51.394;5.454;2023-04-03T14:17:34;6.50;;;6.30;;
26820;SDS011;37186;51.394;5.454;2023-04-03T14:20:35;7.33;;;7.13;;
26820;SDS011;37186;51.394;5.454;2023-04-03T14:23:36;7.10;;;6.90;;
26820;SDS011;37186;51.394;5.454;2023-04-03T14:26:36;7.57;;;7.37;;
26820;SDS011;37186;51.394;5.454;2023-04-03T14:29:37;8.20;;;8.00;;
26820;SDS011;37186;51.394;5.454;2023-04-03T14:32:38;6.83;;;6.63;;
26820;SDS011;37186;51.394;5.454;2023-04-03T14:35:38;7.27;;;7.07;;
26820;SDS011;37186;51.394;5.454;2023-04-03T14:38:39;7.67;;;7.47;;
26820;SDS011;37186;51.394;5.454;2023-04-03T14:41:40;7.83;;;7.63;;
26820;SDS011;37186;51.394;5.454;2023-04-03T14:44:40;7.77;;;7.57;;
26820;SDS011;37186;51.394;5.454;2023-04-03T14:47:45;7.93;;;7.73;;
26820;SDS011;37186;51.394;5.454;2023-04-03T14:50:51;7.70;;;7.50;;
26820;SDS011;37186;51.394;5.454;2023-04-03T14:53:53;6.70;;;6.50;;
26820;SDS011;37186;51.394;5.454;2023-04-03T14:56:57;7.13;;;6.93;;
26820;SDS011;37186;51.394;5.454;2023-04-03T14:59:59;6.10;;;5.90;;
26820;SDS011;37186;51.394;5.454;2023-04-03T15:03:01;5.90;;;5.70;;
26820;SDS011;37186;51.394;5.454;2023-04-03T15:06:02;4.82;;;4.72;;
26820;SDS011;37186;51.394;5.454;2023-04-03T15:09:02;4.97;;;4.88;;
26820;SDS011;37186;51.394;5.454;2023-04-03T15:12:03;5.28;;;5.18;;
26820;SDS011;37186;51.394;5.454;2023-04-03T15:15:04;5.10;;;5.00;;
26820;SDS011;37186;51.394;5.454;2023-04-03T15:18:05;4.95;;;4.85;;
26820;SDS011;37186;51.394;5.454;2023-04-03T15:21:06;4.95;;;4.85;;
26820;SDS011;37186;51.394;5.454;2023-04-03T15:24:08;4.50;;;4.40;;
26820;SDS011;37186;51.394;5.454;2023-04-03T15:27:09;4.28;;;4.18;;
26820;SDS011;37186;51.394;5.454;2023-04-03T15:30:16;3.85;;;3.75;;
26820;SDS011;37186;51.394;5.454;2023-04-03T15:33:18;4.10;;;4.00;;
26820;SDS011;37186;51.394;5.454;2023-04-03T15:36:19;3.67;;;3.58;;
26820;SDS011;37186;51.394;5.454;2023-04-03T15:39:20;3.92;;;3.83;;
26820;SDS011;37186;51.394;5.454;2023-04-03T15:42:20;4.28;;;4.18;;
26820;SDS011;37186;51.394;5.454;2023-04-03T15:45:21;5.40;;;5.30;;
26820;SDS011;37186;51.394;5.454;2023-04-03T15:48:22;4.68;;;4.57;;
26820;SDS011;37186;51.394;5.454;2023-04-03T15:51:22;4.85;;;4.75;;
26820;SDS011;37186;51.394;5.454;2023-04-03T15:54:23;6.13;;;5.93;;
26820;SDS011;37186;51.394;5.454;2023-04-03T15:57:25;6.95;;;6.75;;
26820;SDS011;37186;51.394;5.454;2023-04-03T16:00:26;9.20;;;8.90;;
26820;SDS011;37186;51.394;5.454;2023-04-03T16:03:27;7.88;;;7.68;;
26820;SDS011;37186;51.394;5.454;2023-04-03T16:06:28;7.70;;;7.50;;
26820;SDS011;37186;51.394;5.454;2023-04-03T16:09:33;9.60;;;9.30;;
26820;SDS011;37186;51.394;5.454;2023-04-03T16:12:35;8.80;;;8.52;;
26820;SDS011;37186;51.394;5.454;2023-04-03T16:15:36;10.30;;;10.00;;
26820;SDS011;37186;51.394;5.454;2023-04-03T16:18:37;7.60;;;7.40;;
26820;SDS011;37186;51.394;5.454;2023-04-03T16:21:37;7.53;;;7.32;;
26820;SDS011;37186;51.394;5.454;2023-04-03T16:24:38;9.60;;;9.30;;
26820;SDS011;37186;51.394;5.454;2023-04-03T16:27:38;11.20;;;10.90;;
26820;SDS011;37186;51.394;5.454;2023-04-03T16:30:43;13.40;;;13.00;;
26820;SDS011;37186;51.394;5.454;2023-04-03T16:33:45;11.73;;;11.38;;
26820;SDS011;37186;51.394;5.454;2023-04-03T16:36:45;17.38;;;16.83;;
26820;SDS011;37186;51.394;5.454;2023-04-03T16:39:46;18.02;;;17.45;;
26820;SDS011;37186;51.394;5.454;2023-04-03T16:42:47;17.67;;;17.10;;
26820;SDS011;37186;51.394;5.454;2023-04-03T16:45:47;15.15;;;14.68;;
26820;SDS011;37186;51.394;5.454;2023-04-03T16:48:48;28.02;;;27.08;;
26820;SDS011;37186;51.394;5.454;2023-04-03T16:51:48;21.65;;;20.92;;
26820;SDS011;37186;51.394;5.454;2023-04-03T16:54:49;16.75;;;16.25;;
26820;SDS011;37186;51.394;5.454;2023-04-03T16:57:55;20.00;;;19.40;;
26820;SDS011;37186;51.394;5.454;2023-04-03T17:00:55;20.25;;;19.60;;
26820;SDS011;37186;51.394;5.454;2023-04-03T17:03:56;18.92;;;18.33;;
26820;SDS011;37186;51.394;5.454;2023-04-03T17:06:56;17.33;;;16.80;;
26820;SDS011;37186;51.394;5.454;2023-04-03T17:09:57;20.23;;;19.60;;
26820;SDS011;37186;51.394;5.454;2023-04-03T17:12:58;18.83;;;18.23;;
26820;SDS011;37186;51.394;5.454;2023-04-03T17:15:58;19.63;;;19.00;;
26820;SDS011;37186;51.394;5.454;2023-04-03T17:18:59;18.65;;;18.02;;
26820;SDS011;37186;51.394;5.454;2023-04-03T17:22:00;18.90;;;18.30;;
26820;SDS011;37186;51.394;5.454;2023-04-03T17:25:01;20.80;;;20.13;;
26820;SDS011;37186;51.394;5.454;2023-04-03T17:28:02;22.45;;;21.75;;
26820;SDS011;37186;51.394;5.454;2023-04-03T17:31:02;25.63;;;24.77;;
26820;SDS011;37186;51.394;5.454;2023-04-03T17:34:03;20.02;;;19.40;;
26820;SDS011;37186;51.394;5.454;2023-04-03T17:37:04;15.73;;;15.23;;
26820;SDS011;37186;51.394;5.454;2023-04-03T17:40:05;11.18;;;10.88;;
26820;SDS011;37186;51.394;5.454;2023-04-03T17:43:06;11.77;;;11.43;;
26820;SDS011;37186;51.394;5.454;2023-04-03T17:46:08;11.23;;;10.93;;
26820;SDS011;37186;51.394;5.454;2023-04-03T17:49:09;7.93;;;7.72;;
26820;SDS011;37186;51.394;5.454;2023-04-03T17:52:13;8.05;;;7.85;;
26820;SDS011;37186;51.394;5.454;2023-04-03T17:55:14;11.77;;;11.48;;
26820;SDS011;37186;51.394;5.454;2023-04-03T17:58:16;8.80;;;8.55;;
26820;SDS011;37186;51.394;5.454;2023-04-03T18:01:18;12.80;;;12.40;;
26820;SDS011;37186;51.394;5.454;2023-04-03T18:04:20;10.07;;;9.77;;
26820;SDS011;37186;51.394;5.454;2023-04-03T18:07:20;12.25;;;11.85;;
26820;SDS011;37186;51.394;5.454;2023-04-03T18:10:21;14.60;;;14.13;;
26820;SDS011;37186;51.394;5.454;2023-04-03T18:13:22;13.97;;;13.57;;
26820;SDS011;37186;51.394;5.454;2023-04-03T18:16:22;13.70;;;13.30;;
26820;SDS011;37186;51.394;5.454;2023-04-03T18:19:23;14.30;;;13.87;;
26820;SDS011;37186;51.394;5.454;2023-04-03T18:22:24;10.47;;;10.17;;
26820;SDS011;37186;51.394;5.454;2023-04-03T18:25:25;6.43;;;6.23;;
26820;SDS011;37186;51.394;5.454;2023-04-03T18:28:26;6.40;;;6.20;;
26820;SDS011;37186;51.394;5.454;2023-04-03T18:31:29;5.20;;;5.10;;
26820;SDS011;37186;51.394;5.454;2023-04-03T18:34:33;4.33;;;4.23;;
26820;SDS011;37186;51.394;5.454;2023-04-03T18:37:33;4.50;;;4.40;;
26820;SDS011;37186;51.394;5.454;2023-04-03T18:40:34;4.90;;;4.80;;
26820;SDS011;37186;51.394;5.454;2023-04-03T18:43:35;5.30;;;5.20;;
26820;SDS011;37186;51.394;5.454;2023-04-03T18:46:36;5.97;;;5.77;;
26820;SDS011;37186;51.394;5.454;2023-04-03T18:49:38;6.10;;;5.90;;
26820;SDS011;37186;51.394;5.454;2023-04-03T18:52:40;6.57;;;6.37;;
26820;SDS011;37186;51.394;5.454;2023-04-03T18:55:41;6.23;;;6.03;;
26820;SDS011;37186;51.394;5.454;2023-04-03T18:58:41;5.77;;;5.60;;
26820;SDS011;37186;51.394;5.454;2023-04-03T19:01:42;4.93;;;4.83;;
26820;SDS011;37186;51.394;5.454;2023-04-03T19:04:42;4.63;;;4.53;;
26820;SDS011;37186;51.394;5.454;2023-04-03T19:07:43;4.30;;;4.20;;
26820;SDS011;37186;51.394;5.454;2023-04-03T19:10:44;4.50;;;4.40;;
26820;SDS011;37186;51.394;5.454;2023-04-03T19:13:45;4.80;;;4.70;;
26820;SDS011;37186;51.394;5.454;2023-04-03T19:16:46;4.93;;;4.83;;
26820;SDS011;37186;51.394;5.454;2023-04-03T19:19:46;5.03;;;4.93;;
26820;SDS011;37186;51.394;5.454;2023-04-03T19:22:47;5.20;;;5.10;;
26820;SDS011;37186;51.394;5.454;2023-04-03T19:25:56;4.43;;;4.33;;
26820;SDS011;37186;51.394;5.454;2023-04-03T19:29:00;4.50;;;4.40;;
26820;SDS011;37186;51.394;5.454;2023-04-03T19:32:01;4.40;;;4.30;;
26820;SDS011;37186;51.394;5.454;2023-04-03T19:35:02;4.30;;;4.20;;